Time;durP1;ratioP1;P1;durP2;ratioP2;P2;SDS_P1;SDS_P2;PMS_P1;PMS_P2;Temp;Humidity;BMP_temperature;BMP_pressure;BME280_temperature;BME280_humidity;BME280_pressure;Samples;Min_cycle;Max_cycle;Signal;HPM_P1;HPM_P2
2023/04/20 00:00:22;;;;;;;10.53;3.67;;;6.80;98.30;;;;;;5012725;28;20124;-82
2023/04/20 00:02:49;;;;;;;10.57;3.37;;;6.80;98.40;;;;;;4997816;28;20048;-82
2023/04/20 00:05:14;;;;;;;11.77;3.40;;;6.80;98.70;;;;;;5015674;28;20053;-82
2023/04/20 00:07:40;;;;;;;9.18;3.65;;;6.90;98.90;;;;;;4998940;28;20049;-82
2023/04/20 00:10:09;;;;;;;9.27;3.53;;;6.80;98.80;;;;;;5015943;28;20071;-83
2023/04/20 00:12:35;;;;;;;8.90;3.60;;;6.80;99.20;;;;;;4997979;28;20497;-82
2023/04/20 00:15:01;;;;;;;9.70;3.60;;;6.80;99.30;;;;;;4998201;28;20077;-82
2023/04/20 00:17:26;;;;;;;9.30;3.50;;;6.70;99.40;;;;;;5016074;28;20474;-81
2023/04/20 00:19:52;;;;;;;11.45;3.42;;;6.70;99.80;;;;;;4998400;28;20073;-82
2023/04/20 00:22:18;;;;;;;8.38;3.03;;;6.70;99.90;;;;;;5016325;28;20513;-82
2023/04/20 00:24:44;;;;;;;8.75;3.15;;;6.80;99.90;;;;;;5015473;28;20530;-82
2023/04/20 00:27:10;;;;;;;9.35;3.30;;;6.80;99.90;;;;;;4998144;28;20184;-82
2023/04/20 00:29:36;;;;;;;8.88;3.50;;;6.90;99.90;;;;;;4998861;28;20046;-82
2023/04/20 00:32:01;;;;;;;9.70;3.10;;;6.90;99.90;;;;;;5014866;28;20544;-83
2023/04/20 00:34:27;;;;;;;10.38;3.55;;;7.00;99.90;;;;;;4999256;28;20046;-82
2023/04/20 00:36:53;;;;;;;7.18;2.70;;;7.10;99.90;;;;;;5035791;28;20525;-82
2023/04/20 00:39:18;;;;;;;9.82;3.38;;;7.20;99.90;;;;;;5034535;28;20440;-82
2023/04/20 00:41:44;;;;;;;10.50;3.40;;;7.30;99.90;;;;;;5035429;28;20077;-82
2023/04/20 00:44:12;;;;;;;8.73;3.30;;;7.30;99.90;;;;;;5017660;28;20138;-82
2023/04/20 00:46:38;;;;;;;7.80;2.95;;;7.40;99.90;;;;;;5016711;28;20054;-82
2023/04/20 00:49:05;;;;;;;9.40;3.00;;;7.40;99.90;;;;;;5035138;28;20046;-82
2023/04/20 00:51:31;;;;;;;8.95;3.17;;;7.40;99.90;;;;;;5035133;28;20048;-82
2023/04/20 00:53:57;;;;;;;8.38;3.63;;;7.40;99.90;;;;;;5034649;28;20045;-82
2023/04/20 00:56:22;;;;;;;8.73;3.10;;;7.50;99.90;;;;;;5003543;28;20038;-82
2023/04/20 00:58:48;;;;;;;7.60;2.83;;;7.50;99.90;;;;;;5016943;28;20053;-82
2023/04/20 01:01:16;;;;;;;10.00;3.30;;;7.60;99.90;;;;;;5014988;28;20872;-82
2023/04/20 01:03:42;;;;;;;11.27;2.88;;;7.60;99.90;;;;;;4999604;28;20077;-82
2023/04/20 01:06:08;;;;;;;8.63;3.10;;;7.70;99.90;;;;;;5022597;28;20092;-82
2023/04/20 01:08:34;;;;;;;8.43;3.00;;;7.80;99.90;;;;;;4997423;28;20129;-82
2023/04/20 01:11:00;;;;;;;8.25;2.70;;;7.80;99.80;;;;;;4997570;28;20133;-82
2023/04/20 01:13:25;;;;;;;9.23;3.25;;;7.90;99.80;;;;;;5015127;28;20129;-82
2023/04/20 01:15:51;;;;;;;9.00;2.60;;;7.90;99.70;;;;;;4996737;28;20449;-82
2023/04/20 01:18:19;;;;;;;8.05;2.70;;;8.80;99.90;;;;;;5014875;28;20449;-83
2023/04/20 01:20:46;;;;;;;8.80;3.20;;;8.00;99.60;;;;;;5005377;28;20132;-82
2023/04/20 01:23:12;;;;;;;9.38;3.20;;;8.00;99.50;;;;;;5034580;28;20045;-83
2023/04/20 01:25:38;;;;;;;7.75;2.78;;;8.00;99.60;;;;;;5034610;28;20413;-83
2023/04/20 01:28:03;;;;;;;7.28;2.83;;;8.10;99.50;;;;;;5033625;28;20037;-82
2023/04/20 01:30:30;;;;;;;8.13;2.60;;;8.00;99.40;;;;;;5034302;28;20076;-83
2023/04/20 01:32:56;;;;;;;9.00;2.85;;;8.00;99.50;;;;;;5050893;22;20053;-83
2023/04/20 01:35:21;;;;;;;9.75;3.17;;;8.10;99.50;;;;;;4996540;28;20041;-83
2023/04/20 01:37:47;;;;;;;8.85;3.00;;;8.00;99.50;;;;;;5014980;28;20389;-82
2023/04/20 01:40:13;;;;;;;8.68;3.00;;;8.00;99.60;;;;;;4996894;28;20042;-82
2023/04/20 01:42:39;;;;;;;9.45;2.88;;;9.00;99.80;;;;;;5014053;28;20042;-82
2023/04/20 01:45:05;;;;;;;8.15;3.20;;;8.00;99.60;;;;;;5014166;28;20100;-83
2023/04/20 01:47:31;;;;;;;8.70;2.90;;;8.00;99.60;;;;;;4997476;28;20478;-83
2023/04/20 01:49:57;;;;;;;8.20;3.08;;;8.00;99.80;;;;;;4996385;28;20073;-82
2023/04/20 01:52:22;;;;;;;10.48;3.08;;;7.90;99.90;;;;;;4997056;28;20084;-82
2023/04/20 01:54:48;;;;;;;8.55;2.72;;;9.00;99.90;;;;;;4997230;28;20473;-82
2023/04/20 01:57:13;;;;;;;8.48;2.95;;;7.90;99.90;;;;;;4996040;28;20050;-82
2023/04/20 01:59:39;;;;;;;8.25;2.85;;;7.90;99.90;;;;;;4996661;28;20481;-83
2023/04/20 02:02:05;;;;;;;8.10;2.53;;;7.90;99.90;;;;;;4996309;28;20371;-82
2023/04/20 02:04:30;;;;;;;8.05;2.88;;;7.90;99.90;;;;;;4996205;28;20049;-83
2023/04/20 02:06:56;;;;;;;7.63;2.65;;;7.90;99.90;;;;;;4996048;28;20042;-83
2023/04/20 02:09:21;;;;;;;8.63;2.97;;;8.00;99.90;;;;;;5014294;28;20046;-82
2023/04/20 02:11:47;;;;;;;8.50;2.70;;;7.80;99.90;;;;;;5013754;28;20057;-83
2023/04/20 02:14:13;;;;;;;8.82;3.10;;;7.80;99.90;;;;;;4996350;28;20057;-82
2023/04/20 02:16:38;;;;;;;10.95;2.85;;;7.80;99.90;;;;;;5014448;28;20068;-82
2023/04/20 02:19:04;;;;;;;8.32;2.75;;;7.80;99.90;;;;;;4995375;28;20132;-83
2023/04/20 02:21:30;;;;;;;10.27;3.10;;;8.40;99.90;;;;;;4996490;28;20049;-83
2023/04/20 02:23:56;;;;;;;10.23;2.90;;;7.80;99.90;;;;;;4996724;28;20676;-83
2023/04/20 02:26:21;;;;;;;7.90;2.80;;;7.80;99.90;;;;;;5002844;28;20064;-82
2023/04/20 02:28:47;;;;;;;8.48;2.80;;;7.80;99.90;;;;;;5020658;28;20046;-83
2023/04/20 02:31:12;;;;;;;8.15;3.00;;;7.80;99.90;;;;;;4996542;28;20100;-83
2023/04/20 02:33:39;;;;;;;8.27;2.80;;;7.70;99.90;;;;;;5019755;28;20096;-82
2023/04/20 02:36:06;;;;;;;9.93;2.90;;;7.70;99.90;;;;;;5005501;28;20029;-83
2023/04/20 02:38:31;;;;;;;9.40;2.88;;;7.60;99.90;;;;;;5033216;28;20037;-83
2023/04/20 02:40:57;;;;;;;7.70;2.63;;;7.50;99.90;;;;;;5043810;28;20564;-82
2023/04/20 02:43:22;;;;;;;10.00;2.80;;;7.50;99.90;;;;;;5055642;28;20040;-82
2023/04/20 02:45:48;;;;;;;8.15;3.15;;;7.50;99.90;;;;;;5033397;28;20120;-82
2023/04/20 02:48:14;;;;;;;9.13;2.80;;;7.50;99.90;;;;;;5016171;28;20049;-83
2023/04/20 02:50:41;;;;;;;8.10;2.80;;;7.50;99.90;;;;;;5033125;28;20042;-83
2023/04/20 02:53:06;;;;;;;9.15;3.50;;;7.50;99.90;;;;;;5032343;28;20041;-82
2023/04/20 02:55:32;;;;;;;10.88;3.30;;;7.50;99.90;;;;;;5013623;28;20060;-82
2023/04/20 02:57:57;;;;;;;11.48;4.00;;;7.50;99.90;;;;;;4995400;28;20092;-82
2023/04/20 03:00:23;;;;;;;9.70;3.83;;;7.50;99.90;;;;;;4995163;28;20514;-82
2023/04/20 03:02:49;;;;;;;10.63;3.92;;;7.50;99.90;;;;;;4995749;28;20128;-83
2023/04/20 03:05:15;;;;;;;11.15;3.95;;;7.50;99.90;;;;;;5013118;28;20046;-82
2023/04/20 03:07:41;;;;;;;12.20;4.00;;;7.50;99.90;;;;;;5012565;28;20076;-82
2023/04/20 03:10:07;;;;;;;10.48;3.85;;;7.50;99.90;;;;;;5012882;28;20137;-82
2023/04/20 03:12:33;;;;;;;9.88;3.75;;;7.50;99.90;;;;;;4995506;28;20046;-83
2023/04/20 03:14:59;;;;;;;9.38;3.72;;;7.50;99.90;;;;;;4994638;28;20080;-83
2023/04/20 03:17:24;;;;;;;13.63;4.32;;;7.50;99.90;;;;;;5013373;28;20045;-83
2023/04/20 03:19:50;;;;;;;9.55;3.60;;;7.50;99.90;;;;;;5013293;28;20042;-83
2023/04/20 03:22:18;;;;;;;10.07;4.00;;;8.40;99.90;;;;;;5012297;28;20499;-82
2023/04/20 03:24:44;;;;;;;11.07;3.88;;;7.50;99.90;;;;;;4995818;28;20394;-83
2023/04/20 03:27:10;;;;;;;9.85;3.78;;;7.50;99.90;;;;;;5012524;28;20049;-83
2023/04/20 03:29:35;;;;;;;12.60;4.05;;;7.50;99.90;;;;;;4994820;28;20046;-83
2023/04/20 03:32:01;;;;;;;11.18;3.95;;;7.60;99.90;;;;;;5024468;28;20049;-83
2023/04/20 03:34:26;;;;;;;13.60;3.83;;;7.50;99.90;;;;;;5014377;28;20057;-82
2023/04/20 03:36:52;;;;;;;9.77;3.70;;;7.60;99.90;;;;;;5014482;28;20049;-83
2023/04/20 03:39:17;;;;;;;10.82;3.78;;;7.60;99.90;;;;;;5014509;28;20068;-83
2023/04/20 03:41:43;;;;;;;11.32;3.95;;;7.60;99.90;;;;;;5013930;28;20873;-83
2023/04/20 03:44:09;;;;;;;11.80;3.70;;;7.50;99.90;;;;;;5014669;28;20053;-83
2023/04/20 03:46:35;;;;;;;10.68;3.75;;;7.50;99.90;;;;;;5014349;28;20460;-83
2023/04/20 03:49:01;;;;;;;12.38;3.85;;;7.50;99.90;;;;;;5013637;28;20060;-83
2023/04/20 03:51:26;;;;;;;13.52;4.18;;;7.50;99.90;;;;;;5014399;28;20037;-83
2023/04/20 03:53:52;;;;;;;12.95;3.97;;;7.50;99.90;;;;;;5033419;28;20053;-83
2023/04/20 03:56:17;;;;;;;11.75;3.85;;;7.50;99.90;;;;;;5018360;28;20049;-83
2023/04/20 03:58:43;;;;;;;12.48;3.80;;;7.50;99.90;;;;;;5015112;28;20045;-83
2023/04/20 04:01:09;;;;;;;11.25;3.97;;;7.50;99.90;;;;;;5025678;28;20433;-83
2023/04/20 04:03:35;;;;;;;11.55;3.60;;;7.50;99.90;;;;;;4997889;28;20208;-83
2023/04/20 04:06:02;;;;;;;10.63;3.38;;;7.50;99.90;;;;;;4996203;28;20541;-83
2023/04/20 04:08:28;;;;;;;9.77;3.60;;;7.50;99.90;;;;;;5014134;28;20049;-83
2023/04/20 04:10:53;;;;;;;8.77;3.10;;;7.50;99.90;;;;;;5014061;28;20050;-83
2023/04/20 04:13:19;;;;;;;9.27;3.28;;;7.50;99.90;;;;;;4994607;28;20500;-83
2023/04/20 04:15:44;;;;;;;9.40;3.00;;;7.80;99.90;;;;;;5012760;28;20379;-83
2023/04/20 04:18:10;;;;;;;8.48;2.80;;;7.50;99.90;;;;;;4993936;28;20129;-83
2023/04/20 04:20:36;;;;;;;9.82;3.28;;;7.50;99.90;;;;;;4995048;28;20060;-82
2023/04/20 04:23:01;;;;;;;8.85;2.97;;;7.50;99.90;;;;;;5012527;28;20104;-85
2023/04/20 04:25:27;;;;;;;8.82;2.83;;;7.60;99.90;;;;;;5011645;28;20042;-83
2023/04/20 04:27:53;;;;;;;12.25;2.80;;;7.50;99.90;;;;;;4994863;28;20049;-83
2023/04/20 04:30:19;;;;;;;8.52;2.80;;;7.50;99.90;;;;;;5012381;28;20092;-83
2023/04/20 04:32:45;;;;;;;8.38;2.72;;;7.60;99.90;;;;;;4993962;28;20093;-83
2023/04/20 04:35:12;;;;;;;9.75;2.88;;;7.60;99.90;;;;;;5011896;28;20449;-83
2023/04/20 04:37:37;;;;;;;9.18;3.05;;;7.50;99.90;;;;;;5012546;28;20046;-83
2023/04/20 04:40:06;;;;;;;7.70;2.63;;;8.30;99.90;;;;;;4993907;28;20397;-83
2023/04/20 04:42:33;;;;;;;8.38;2.50;;;7.50;99.90;;;;;;4995211;28;20092;-83
2023/04/20 04:45:01;;;;;;;7.93;2.90;;;8.60;99.90;;;;;;4993826;28;20073;-84
2023/04/20 04:47:28;;;;;;;7.85;2.78;;;7.50;99.90;;;;;;4995073;28;20049;-83
2023/04/20 04:49:54;;;;;;;9.60;2.95;;;7.50;99.90;;;;;;4998568;28;20125;-83
2023/04/20 04:52:21;;;;;;;9.95;3.08;;;7.50;99.90;;;;;;5015112;28;20589;-83
2023/04/20 04:54:48;;;;;;;7.60;2.70;;;7.50;99.90;;;;;;5015907;28;20092;-83
2023/04/20 04:57:14;;;;;;;9.43;3.15;;;7.40;99.90;;;;;;4997387;28;20042;-83
2023/04/20 04:59:40;;;;;;;8.80;3.10;;;7.50;99.90;;;;;;4997698;28;20128;-83
2023/04/20 05:02:07;;;;;;;9.63;2.90;;;7.50;99.90;;;;;;5014986;28;20268;-83
2023/04/20 05:04:32;;;;;;;10.13;2.80;;;8.60;99.90;;;;;;5015822;28;20041;-83
2023/04/20 05:06:58;;;;;;;8.30;2.70;;;8.20;99.90;;;;;;4996814;28;20045;-83
2023/04/20 05:09:24;;;;;;;8.82;2.90;;;7.40;99.90;;;;;;4997795;28;20041;-83
2023/04/20 05:11:50;;;;;;;8.85;2.95;;;7.40;99.90;;;;;;4997809;28;20041;-83
2023/04/20 05:14:15;;;;;;;11.25;3.15;;;7.40;99.90;;;;;;4997118;28;20037;-83
2023/04/20 05:16:41;;;;;;;8.70;3.10;;;8.30;99.90;;;;;;4997783;28;20069;-83
2023/04/20 05:19:07;;;;;;;9.52;2.92;;;7.30;99.90;;;;;;5015073;28;20175;-83
2023/04/20 05:21:32;;;;;;;9.30;2.88;;;7.80;99.90;;;;;;5014321;28;20042;-83
2023/04/20 05:23:58;;;;;;;9.63;3.10;;;7.30;99.90;;;;;;5001609;28;20046;-83
2023/04/20 05:26:23;;;;;;;10.73;3.33;;;7.30;99.90;;;;;;5016398;28;20038;-83
2023/04/20 05:28:50;;;;;;;9.18;3.05;;;7.20;99.90;;;;;;5021141;23;20085;-84
2023/04/20 05:31:15;;;;;;;9.38;3.20;;;7.20;99.90;;;;;;5020801;28;20405;-83
2023/04/20 05:33:43;;;;;;;9.60;3.17;;;7.10;99.90;;;;;;5001799;28;20042;-83
2023/04/20 05:36:09;;;;;;;10.73;3.20;;;7.10;99.90;;;;;;5015507;28;20042;-84
2023/04/20 05:38:35;;;;;;;8.38;3.10;;;8.40;99.90;;;;;;5000764;28;20093;-83
2023/04/20 05:41:00;;;;;;;9.07;3.60;;;7.00;99.90;;;;;;4996842;28;20096;-83
2023/04/20 05:43:26;;;;;;;9.43;3.55;;;7.00;99.90;;;;;;4997336;28;20056;-83
2023/04/20 05:45:52;;;;;;;9.65;3.30;;;7.00;99.90;;;;;;4997596;28;20122;-83
2023/04/20 05:48:19;;;;;;;9.13;3.00;;;7.00;99.90;;;;;;5013696;28;20477;-83
2023/04/20 05:50:45;;;;;;;9.85;3.28;;;6.90;99.90;;;;;;4997200;28;20038;-83
2023/04/20 05:53:11;;;;;;;8.60;3.45;;;6.80;99.90;;;;;;4996576;28;20100;-82
2023/04/20 05:55:36;;;;;;;9.57;3.00;;;7.80;99.90;;;;;;5013845;28;20100;-83
2023/04/20 05:58:04;;;;;;;9.70;3.67;;;6.80;99.90;;;;;;5014220;28;20366;-83
2023/04/20 06:00:30;;;;;;;10.63;3.85;;;6.80;99.90;;;;;;5014756;28;20049;-83
2023/04/20 06:02:56;;;;;;;10.13;3.63;;;6.70;99.90;;;;;;4995662;28;20049;-83
2023/04/20 06:05:22;;;;;;;10.57;4.40;;;6.60;99.90;;;;;;4996715;28;20065;-82
2023/04/20 06:07:47;;;;;;;9.40;3.67;;;6.50;99.90;;;;;;5014138;28;20366;-83
2023/04/20 06:10:13;;;;;;;14.70;4.97;;;6.50;99.90;;;;;;5013699;28;20092;-83
2023/04/20 06:12:38;;;;;;;12.18;4.00;;;6.40;99.90;;;;;;4996656;28;20053;-83
2023/04/20 06:15:09;;;;;;;11.10;4.85;;;6.30;99.90;;;;;;5013929;28;20410;-83
2023/04/20 06:17:37;;;;;;;13.68;4.85;;;6.20;99.90;;;;;;4995649;28;20501;-83
2023/04/20 06:20:05;;;;;;;11.63;4.80;;;6.20;99.90;;;;;;4995945;28;20486;-80
2023/04/20 06:22:31;;;;;;;12.55;4.88;;;6.10;99.90;;;;;;5014173;28;20166;-81
2023/04/20 06:24:59;;;;;;;11.75;4.72;;;6.10;99.90;;;;;;5012967;28;20124;-80
2023/04/20 06:27:24;;;;;;;10.90;4.65;;;6.00;99.90;;;;;;4991120;28;20055;-81
2023/04/20 06:29:50;;;;;;;12.88;4.95;;;6.40;99.90;;;;;;4974905;28;20125;-81
2023/04/20 06:32:19;;;;;;;11.88;4.38;;;6.00;99.90;;;;;;4974724;28;20047;-81
2023/04/20 06:34:46;;;;;;;11.50;4.60;;;6.00;99.90;;;;;;4975904;28;20039;-81
2023/04/20 06:37:12;;;;;;;11.27;4.50;;;6.00;99.90;;;;;;4974085;28;20130;-81
2023/04/20 06:39:38;;;;;;;13.13;4.70;;;6.10;99.90;;;;;;4972687;28;20538;-80
2023/04/20 06:42:03;;;;;;;12.52;4.70;;;6.10;99.90;;;;;;4972844;28;20038;-80
2023/04/20 06:44:29;;;;;;;13.43;4.45;;;6.60;99.90;;;;;;4973572;28;20502;-80
2023/04/20 06:46:55;;;;;;;12.38;4.63;;;6.20;99.90;;;;;;4973071;28;20222;-82
2023/04/20 06:49:20;;;;;;;10.85;4.03;;;6.20;99.90;;;;;;4973679;28;20130;-82
2023/04/20 06:51:46;;;;;;;15.23;4.82;;;6.20;99.90;;;;;;4972547;28;20055;-81
2023/04/20 06:54:11;;;;;;;11.48;4.22;;;6.20;99.90;;;;;;4975062;28;20051;-82
2023/04/20 06:56:37;;;;;;;12.60;4.40;;;6.10;99.90;;;;;;4973116;28;20038;-81
2023/04/20 06:59:02;;;;;;;10.65;4.47;;;6.20;99.90;;;;;;4972600;28;20039;-81
2023/04/20 07:01:28;;;;;;;10.65;4.20;;;6.10;99.90;;;;;;4974073;28;20046;-81
2023/04/20 07:03:54;;;;;;;9.50;4.10;;;6.10;99.90;;;;;;4974305;28;20047;-81
2023/04/20 07:06:21;;;;;;;10.07;4.00;;;6.00;99.90;;;;;;4973684;28;20096;-80
2023/04/20 07:08:46;;;;;;;11.13;4.05;;;6.00;99.90;;;;;;4974283;28;20043;-81
2023/04/20 07:11:12;;;;;;;10.30;3.92;;;5.90;99.90;;;;;;4972674;28;20189;-81
2023/04/20 07:13:38;;;;;;;9.52;4.05;;;5.90;99.90;;;;;;4972390;28;20046;-81
2023/04/20 07:16:04;;;;;;;12.37;4.63;;;5.80;99.90;;;;;;4973894;28;20166;-81
2023/04/20 07:18:30;;;;;;;10.23;4.33;;;5.80;99.90;;;;;;4972702;28;20156;-81
2023/04/20 07:20:55;;;;;;;11.17;4.47;;;5.80;99.90;;;;;;4971685;28;20081;-82
2023/04/20 07:23:21;;;;;;;10.47;4.33;;;6.00;99.90;;;;;;4972951;28;20050;-82
2023/04/20 07:25:46;;;;;;;10.50;4.57;;;6.00;99.90;;;;;;4972796;28;20492;-82
2023/04/20 07:28:12;;;;;;;10.65;4.43;;;6.10;99.90;;;;;;4994631;28;20050;-82
2023/04/20 07:30:38;;;;;;;10.27;4.28;;;6.20;99.90;;;;;;4995001;28;20045;-82
2023/04/20 07:33:03;;;;;;;11.40;4.43;;;6.30;99.90;;;;;;5012023;28;20038;-82
2023/04/20 07:35:32;;;;;;;10.97;4.03;;;6.30;99.90;;;;;;5012242;28;20065;-82
2023/04/20 07:37:58;;;;;;;13.67;4.17;;;6.30;99.90;;;;;;4994517;28;20540;-82
2023/04/20 07:40:24;;;;;;;11.07;4.23;;;6.80;99.90;;;;;;4994316;28;20070;-81
2023/04/20 07:42:50;;;;;;;10.70;4.30;;;6.60;99.90;;;;;;4994063;28;20064;-85
2023/04/20 07:45:15;;;;;;;11.93;4.60;;;7.70;99.90;;;;;;4994744;28;20054;-84
2023/04/20 07:47:43;;;;;;;11.23;4.60;;;6.70;99.90;;;;;;5012256;28;20427;-81
2023/04/20 07:50:09;;;;;;;12.97;4.83;;;7.90;99.90;;;;;;4994933;28;20138;-81
2023/04/20 07:52:35;;;;;;;12.10;4.63;;;6.90;99.90;;;;;;4995275;28;20461;-81
2023/04/20 07:55:01;;;;;;;13.02;4.55;;;8.00;99.90;;;;;;5011477;28;20113;-81
2023/04/20 07:57:28;;;;;;;12.45;4.50;;;6.80;99.90;;;;;;5012081;28;20048;-81
2023/04/20 07:59:54;;;;;;;11.48;4.50;;;6.80;99.90;;;;;;5012520;28;20046;-81
2023/04/20 08:02:19;;;;;;;11.82;4.57;;;6.80;99.90;;;;;;4993866;28;20053;-81
2023/04/20 08:04:45;;;;;;;10.40;4.50;;;6.80;99.90;;;;;;5012663;28;20050;-82
2023/04/20 08:07:11;;;;;;;12.40;4.72;;;6.80;99.90;;;;;;4994645;28;20069;-81
2023/04/20 08:09:37;;;;;;;12.38;5.20;;;6.80;99.90;;;;;;5011649;28;20120;-81
2023/04/20 08:12:03;;;;;;;11.38;4.93;;;6.90;99.90;;;;;;4994505;28;20444;-82
2023/04/20 08:14:29;;;;;;;12.35;5.00;;;6.90;99.90;;;;;;5012180;28;20049;-81
2023/04/20 08:16:54;;;;;;;12.77;4.90;;;7.10;99.90;;;;;;5011675;28;20050;-81
2023/04/20 08:19:20;;;;;;;12.23;5.07;;;7.10;99.90;;;;;;4994643;28;20045;-81
2023/04/20 08:21:46;;;;;;;12.90;5.20;;;7.10;99.90;;;;;;4994435;28;20072;-81
2023/04/20 08:24:12;;;;;;;10.23;5.15;;;7.20;99.90;;;;;;4998909;28;20058;-81
2023/04/20 08:26:38;;;;;;;13.48;5.03;;;7.30;99.90;;;;;;4999545;28;20551;-81
2023/04/20 08:29:04;;;;;;;11.50;4.60;;;7.40;99.90;;;;;;5015907;28;20422;-81
2023/04/20 08:31:30;;;;;;;12.48;5.05;;;7.50;99.90;;;;;;5000037;28;20433;-82
2023/04/20 08:33:56;;;;;;;12.43;5.10;;;7.60;99.90;;;;;;4998304;28;20038;-82
2023/04/20 08:36:22;;;;;;;13.13;5.78;;;7.70;99.90;;;;;;4998602;28;20050;-81
2023/04/20 08:38:56;;;;;;;12.57;5.40;;;7.70;99.90;;;;;;4998010;28;20129;-81
2023/04/20 08:41:24;;;;;;;11.75;5.30;;;7.80;99.90;;;;;;5016197;28;20041;-81
2023/04/20 08:43:50;;;;;;;12.75;5.47;;;8.00;99.90;;;;;;4997503;28;20420;-82
2023/04/20 08:46:17;;;;;;;12.95;5.50;;;8.00;99.90;;;;;;5014726;28;20486;-82
2023/04/20 08:48:45;;;;;;;12.85;6.00;;;8.00;99.90;;;;;;4998200;28;20072;-82
2023/04/20 08:51:13;;;;;;;13.40;5.72;;;7.90;99.90;;;;;;4997056;28;20046;-81
2023/04/20 08:53:39;;;;;;;12.23;5.70;;;7.90;99.90;;;;;;4990604;28;20082;-83
2023/04/20 08:56:05;;;;;;;13.27;6.20;;;9.00;99.90;;;;;;5006226;28;20077;-82
2023/04/20 08:58:31;;;;;;;13.50;5.85;;;8.00;99.90;;;;;;4996065;28;20092;-83
2023/04/20 09:00:59;;;;;;;15.13;6.10;;;8.00;99.90;;;;;;4997485;28;20100;-83
2023/04/20 09:03:51;;;;;;;13.10;6.15;;;8.30;99.90;;;;;;4997153;28;20042;-82
2023/04/20 09:06:17;;;;;;;13.93;5.90;;;7.90;99.90;;;;;;5010620;28;20054;-83
2023/04/20 09:08:44;;;;;;;11.75;5.95;;;8.00;99.90;;;;;;4997724;28;20132;-83
2023/04/20 09:11:23;;;;;;;14.48;6.00;;;8.20;99.90;;;;;;4996974;28;20069;-82
2023/04/20 09:13:59;;;;;;;11.73;5.70;;;8.30;99.90;;;;;;4996296;28;20065;-82
2023/04/20 09:16:24;;;;;;;12.50;6.10;;;8.40;99.90;;;;;;4996478;28;20073;-82
2023/04/20 09:18:57;;;;;;;14.43;6.38;;;8.60;99.90;;;;;;4996128;28;20073;-83
2023/04/20 09:21:26;;;;;;;14.15;6.47;;;9.00;99.90;;;;;;4993541;28;20126;-82
2023/04/20 09:23:57;;;;;;;11.68;6.28;;;8.90;99.90;;;;;;4994851;28;20120;-86
2023/04/20 09:26:23;;;;;;;13.32;6.72;;;8.70;99.90;;;;;;5014796;28;20153;-83
2023/04/20 09:28:49;;;;;;;12.00;6.28;;;8.50;99.90;;;;;;5014813;28;20133;-82
2023/04/20 09:31:20;;;;;;;13.43;6.63;;;8.40;99.90;;;;;;4996304;28;20057;-81
2023/04/20 09:33:58;;;;;;;14.20;7.03;;;8.30;99.90;;;;;;4995492;28;20045;-82
2023/04/20 09:36:33;;;;;;;13.80;7.15;;;8.30;99.90;;;;;;5015168;28;20053;-83
2023/04/20 09:39:10;;;;;;;13.35;7.10;;;8.40;99.90;;;;;;5014195;28;20429;-83
2023/04/20 09:41:37;;;;;;;12.70;7.30;;;8.60;99.90;;;;;;5014180;28;20132;-82
2023/04/20 09:44:03;;;;;;;12.45;7.20;;;8.70;99.90;;;;;;5014272;28;20065;-83
2023/04/20 09:46:31;;;;;;;13.25;7.50;;;8.90;99.90;;;;;;5014991;28;20115;-82
2023/04/20 09:48:59;;;;;;;11.45;6.63;;;9.60;99.90;;;;;;4996350;28;20132;-82
2023/04/20 09:51:30;;;;;;;17.80;7.63;;;9.20;99.90;;;;;;4997865;28;20077;-82
2023/04/20 09:53:58;;;;;;;14.10;7.40;;;9.10;99.90;;;;;;5022771;28;20043;-82
2023/04/20 09:56:24;;;;;;;15.18;7.50;;;9.00;99.90;;;;;;5002437;28;20042;-83
2023/04/20 09:58:51;;;;;;;14.98;7.30;;;8.90;99.90;;;;;;4999327;28;20624;-84
2023/04/20 10:01:17;;;;;;;13.40;7.57;;;8.80;99.90;;;;;;5020301;28;20359;-85
2023/04/20 10:03:44;;;;;;;14.27;8.25;;;8.70;99.90;;;;;;4998997;28;20498;-83
2023/04/20 10:06:25;;;;;;;13.60;8.15;;;8.70;99.90;;;;;;4997125;28;20390;-84
2023/04/20 10:08:51;;;;;;;11.95;7.47;;;8.60;99.90;;;;;;4995717;28;20042;-83
2023/04/20 10:11:30;;;;;;;14.57;8.77;;;9.90;99.90;;;;;;4996477;28;20046;-84
2023/04/20 10:13:57;;;;;;;16.33;8.30;;;8.70;99.90;;;;;;5013875;28;20042;-83
2023/04/20 10:16:23;;;;;;;16.08;8.98;;;8.70;99.90;;;;;;4995788;28;20518;-83
2023/04/20 10:18:56;;;;;;;15.05;8.65;;;8.70;99.90;;;;;;5014026;28;20081;-83
2023/04/20 10:21:22;;;;;;;14.18;8.48;;;8.80;99.90;;;;;;4996212;28;20053;-83
2023/04/20 10:23:51;;;;;;;15.50;7.90;;;8.80;99.90;;;;;;5013144;28;20390;-82
2023/04/20 10:26:20;;;;;;;14.85;8.18;;;8.80;99.90;;;;;;4996147;28;20069;-83
2023/04/20 10:28:45;;;;;;;14.07;8.77;;;8.80;99.90;;;;;;5013562;28;20621;-81
2023/04/20 10:31:13;;;;;;;15.85;8.75;;;8.90;99.90;;;;;;4995103;28;20124;-83
2023/04/20 10:33:49;;;;;;;15.15;8.82;;;9.80;99.90;;;;;;5013646;28;20116;-82
2023/04/20 10:36:27;;;;;;;15.43;8.93;;;8.90;99.90;;;;;;5013595;28;20132;-82
2023/04/20 10:38:53;;;;;;;16.63;8.60;;;9.20;99.90;;;;;;4996149;28;20050;-82
2023/04/20 10:41:20;;;;;;;13.00;8.25;;;10.40;99.90;;;;;;5013720;28;20042;-81
2023/04/20 10:43:45;;;;;;;12.32;7.80;;;9.90;99.90;;;;;;5013234;28;20153;-82
2023/04/20 10:46:20;;;;;;;15.25;8.63;;;11.10;99.90;;;;;;5012802;28;20538;-82
2023/04/20 10:49:07;;;;;;;14.68;8.07;;;10.70;99.90;;;;;;4995723;28;20051;-83
2023/04/20 10:51:33;;;;;;;12.65;7.45;;;10.70;99.90;;;;;;5012668;28;20125;-83
2023/04/20 10:54:04;;;;;;;13.35;7.80;;;10.90;99.90;;;;;;4995997;28;20461;-82
2023/04/20 10:56:40;;;;;;;14.70;7.95;;;10.20;99.90;;;;;;4996193;28;20065;-82
2023/04/20 10:59:14;;;;;;;13.48;7.93;;;10.00;99.90;;;;;;5012304;28;20124;-83
2023/04/20 11:01:41;;;;;;;12.63;7.65;;;10.00;99.90;;;;;;5013627;28;20045;-83
2023/04/20 11:04:09;;;;;;;13.35;7.78;;;10.60;99.90;;;;;;4996458;28;20046;-82
2023/04/20 11:06:35;;;;;;;15.73;7.82;;;11.40;99.90;;;;;;5012583;28;20556;-83
2023/04/20 11:09:01;;;;;;;11.40;7.43;;;11.80;99.90;;;;;;4995578;28;20462;-82
2023/04/20 11:11:27;;;;;;;11.75;7.30;;;12.00;99.90;;;;;;4996067;28;20121;-83
2023/04/20 11:14:07;;;;;;;12.93;7.88;;;12.40;99.90;;;;;;4994708;28;20042;-81
2023/04/20 11:16:32;;;;;;;12.80;7.93;;;12.40;99.90;;;;;;4995357;28;20052;-82
2023/04/20 11:18:58;;;;;;;13.25;7.65;;;12.20;99.90;;;;;;4995457;28;20046;-81
2023/04/20 11:21:43;;;;;;;14.38;7.95;;;11.90;99.90;;;;;;5000589;28;20049;-82
2023/04/20 11:24:21;;;;;;;11.43;7.20;;;12.60;99.90;;;;;;5013640;28;20117;-82
2023/04/20 11:26:52;;;;;;;13.63;8.10;;;11.10;99.90;;;;;;5013620;28;20165;-82
2023/04/20 11:29:32;;;;;;;14.90;8.05;;;11.30;99.90;;;;;;4998999;28;20109;-81
2023/04/20 11:31:59;;;;;;;12.55;7.70;;;11.80;99.90;;;;;;4996769;28;20054;-81
2023/04/20 11:34:25;;;;;;;14.40;7.70;;;12.40;99.90;;;;;;5012968;28;20046;-81
2023/04/20 11:36:55;;;;;;;14.10;7.85;;;11.60;99.90;;;;;;4995949;28;20054;-82
2023/04/20 11:39:28;;;;;;;13.00;7.18;;;11.40;99.90;;;;;;5013659;28;20050;-81
2023/04/20 11:41:55;;;;;;;13.38;7.68;;;11.20;99.90;;;;;;5012607;28;20490;-81
2023/04/20 11:44:24;;;;;;;13.40;7.82;;;11.10;99.90;;;;;;5027182;23;20129;-81
2023/04/20 11:46:55;;;;;;;14.68;7.95;;;10.90;99.90;;;;;;4994572;28;20403;-81
2023/04/20 11:49:22;;;;;;;15.25;8.95;;;10.90;99.90;;;;;;4995562;28;20048;-82
2023/04/20 11:51:48;;;;;;;14.82;8.98;;;10.70;99.90;;;;;;4995431;28;20034;-81
2023/04/20 11:54:14;;;;;;;14.48;8.52;;;10.70;99.90;;;;;;5012342;28;20514;-81
2023/04/20 11:56:40;;;;;;;14.68;8.57;;;10.80;99.90;;;;;;5014139;28;20153;-81
2023/04/20 11:59:07;;;;;;;14.43;7.93;;;11.10;99.90;;;;;;4999040;28;20077;-82
2023/04/20 12:01:33;;;;;;;15.43;8.20;;;12.80;99.90;;;;;;4998764;28;20125;-81
2023/04/20 12:04:02;;;;;;;13.57;8.05;;;12.10;99.90;;;;;;4999220;28;20457;-82
2023/04/20 12:06:28;;;;;;;14.15;8.57;;;12.10;99.90;;;;;;5016676;28;20045;-82
2023/04/20 12:08:55;;;;;;;12.77;8.18;;;11.80;99.90;;;;;;4998720;28;20393;-82
2023/04/20 12:11:21;;;;;;;13.75;7.72;;;11.50;99.90;;;;;;4999492;28;20393;-82
2023/04/20 12:13:46;;;;;;;12.35;6.75;;;11.40;99.90;;;;;;4999102;28;20050;-82
2023/04/20 12:16:12;;;;;;;12.30;6.95;;;11.90;99.90;;;;;;4997825;28;20041;-82
2023/04/20 12:18:37;;;;;;;12.18;7.20;;;12.30;99.90;;;;;;4998932;28;20136;-81
2023/04/20 12:21:03;;;;;;;13.10;6.93;;;13.70;99.90;;;;;;5016275;28;20048;-82
2023/04/20 12:23:29;;;;;;;11.88;6.78;;;12.90;99.90;;;;;;4998302;28;20490;-81
2023/04/20 12:25:55;;;;;;;13.02;6.85;;;12.80;99.90;;;;;;4998556;28;20046;-82
2023/04/20 12:28:21;;;;;;;12.88;7.20;;;12.70;99.90;;;;;;4998950;28;20425;-82
2023/04/20 12:30:46;;;;;;;15.82;7.72;;;12.40;99.90;;;;;;5015996;28;20095;-83
2023/04/20 12:33:12;;;;;;;13.93;7.60;;;11.80;99.90;;;;;;5016573;28;20052;-81
2023/04/20 12:35:37;;;;;;;12.68;7.40;;;11.50;99.90;;;;;;5016184;28;20053;-81
2023/04/20 12:38:05;;;;;;;14.88;7.10;;;11.20;99.90;;;;;;4997796;28;20037;-81
2023/04/20 12:40:31;;;;;;;12.73;6.93;;;12.10;99.90;;;;;;4998944;28;20046;-81
2023/04/20 12:42:56;;;;;;;14.20;7.30;;;10.80;99.90;;;;;;5015874;28;20046;-82
2023/04/20 12:45:22;;;;;;;13.32;7.07;;;10.80;99.90;;;;;;4997491;28;20042;-81